Saint Helena Island, United Kingdom
Current Conditions -  °F | °C
As of 1:00 PM on Thursday 30 Oct 2014 (Local Time) from FNLU Reporting Station
Broken Clouds Broken Clouds  
Wind Chill: 82°   Ceiling: 2300
Heat Index: 87°   Visibility: 6mi
Dew Point: 72°   Wind: 9mph
Humidity: 70%   Direction: 250°WSW
Pressure: 29.83"   Gusts: NA
Location:  15.93°S, 5.07°W
Report Text: FNLU 301200Z 25008KT 9999 SCT019 BKN023 28/22 Q1010 NOSIG
Loading
Personal Weather Stations






























Interactive Weather Map
Tropical Storm Tracking
New forecast layout! Learn more

10-Day Weather Forecast

Advertisements
Track Severe Weather on mobile